Terminal Aerodrome Forecast
Issued by NWS Indianapolis, IN

Home | Current Version | Previous Version | Text Only | Print | Product List | Glossary On
Versions: 1 2 3 4 5 6 7 8 9 10 11 12 13 14 15 16 17 18 19 20 21 22 23 24 25 26 27
000
FTUS43 KIND 261400 AAA
TAFIND
TAF AMD
KIND 261414Z 2614/2718 15009KT P6SM BKN040 OVC230
     FM261630 19012G20KT P6SM VCSH BKN015
     FM261700 19013G28KT P6SM VCTS BKN035CB
     FM270200 21010KT P6SM BKN025
      TEMPO 2709/2713 4SM BR
     FM271500 22014G18KT P6SM BKN035=

USA.gov is the U.S. government's official web portal to all federal, state and local government web resources and services.